LIEO Airport Information

Runway Information
Runway 05 Length 8025 ft width 148 ft
Elevation 35 ft Threshold 805 ft Heading 53
Runway 23 Length 8025 ft Width 148 ft
Elevation 19 ft Threshold 495 ft Heading 233
Airport Frequencies
Type APP Name OLBIA RADA Frequency 125.95 MHZ
Type ATIS Name ATIS Frequency 113.9 MHZ
Type TWR Name OLBIA TWR Frequency 118.975 MHZ
Airport Navaids
Type VOR-DME Name Olbia Costa Smeralda Frequency 113900 KHZ
Type NDB Name Olbia Costa Smeralda Frequency 357 KHZ
Airport Weather Information & NOTAM
ADDS - METARS form results

(1028 UTC 26 January 2022)
Data provider http://aviationweather.gov/metar/data/
 
METAR text: LIEO 261020Z 22013KT 9999 SCT040 12/05 Q1031
Conditions at: LIEO (OLBIA/COSTA SMER, IT) observed 1020 UTC 26 January 2022
Temperature: 12.0°C (54°F)
Dewpoint: 5.0°C (41°F) [RH = 62%]
Pressure (altimeter): 30.44 inches Hg (1031.0 mb)
Winds: from the SW (220 degrees) at 15 MPH (13 knots; 6.7 m/s)
Visibility: 6 or more miles (10+ km)
Ceiling: at least 12,000 feet AGL
Clouds: scattered clouds at 4000 feet AGL
Weather: no significant weather observed at this time

METAR text: LIEO 260950Z 23012KT 9999 FEW035 10/05 Q1031
Conditions at: LIEO (OLBIA/COSTA SMER, IT) observed 0950 UTC 26 January 2022
Temperature: 10.0°C (50°F)
Dewpoint: 5.0°C (41°F) [RH = 71%]
Pressure (altimeter): 30.44 inches Hg (1031.0 mb)
Winds: from the SW (230 degrees) at 14 MPH (12 knots; 6.2 m/s)
Visibility: 6 or more miles (10+ km)
Ceiling: at least 12,000 feet AGL
Clouds: few clouds at 3500 feet AGL
Weather: no significant weather observed at this time

Forecast for: LIEO (OLBIA/COSTA SMER, IT)
Text: TAF LIEO 260500Z 2606/2706 24014KT 9999 FEW030
Forecast period: 0600 UTC 26 January 2022 to 0600 UTC 27 January 2022
Forecast type: FROM: standard forecast or significant change
Winds: from the WSW (240 degrees) at 16 MPH (14 knots; 7.2 m/s)
Visibility: 6 or more miles (10+ km)
Ceiling: at least 12,000 feet AGL
Clouds: few clouds at 3000 feet AGL
Weather: no significant weather forecast for this period